Boone County Airport
KHRO : rendu visible

Aérodrome :











RETROUVEZ-NOUS SUR...

 
LOGIN :

S'inscrire | Disclaimer

   EN    FR    IT 

 









Légende :    VFR   VFR Marginal   IFR   IFR Intensif   IFR Très Intensif
Visi : 
Plafond : 
>= 8 km
>= 3000ft
5 à 8 km
1000 à 3000 ft
1500m à 5 km
500 à 1000 ft
800 à 1500m
200 à 500 ft
< 800m
< 200 ft
Symboles :   Orages  Brouillard  Fortes neiges  Fortes précipitations  Vent > 20 kt






- Altitude de l'aérodrome : 1365 ft
- Code IATA : HRO


KHRO - Boone County

DERNIER METAR :
  • 031753Z AUTO 33008KT 10SM FEW023 SCT028 BKN048 24/19 A3007 RMK AO2 SLP171 T02390189 10261 20178 51003

METARs EXPIRÉS :
  • 031653Z AUTO 36007KT 10SM FEW026 FEW033 SCT041 25/19 A3007 RMK AO2 SLP170 T02500189
  • 031610Z AUTO 31005KT 10SM BKN022 BKN028 24/19 A3007 RMK AO2 T02390189
  • 031553Z AUTO 36007KT 10SM FEW019 24/18 A3007 RMK AO2 SLP170 T02440183
  • 031515Z AUTO 33007KT 10SM SCT014 23/18 A3007 RMK AO2 T02330183
  • 031453Z AUTO VRB04KT 10SM BKN014 22/18 A3006 RMK AO2 SLP168 T02220183 51009

TAF KHRO
Valide du 03 à 18h jusqu'au 04 à 18h UTC


031736Z 0318/0418 35008KT P6SM VCSH SCT030
FM032000 34012KT P6SM SCT040
FM040100 VRB03KT P6SM SCT250
FM041200 32006KT P6SM SCT020
FIR KZME / Amérique du Nord



MET'MAP, la Météo Aéronautique d'un coup d'oeil ! - Copyright ORBIFLY Décembre 2007 - Disclaimer

ORBIFLY MET'MAP TEAM :

Programmation & Développement : Alexandra Zaïnal
Sur une idée originale de : Baudouin d'Aumeries
Assistance à la programmation : Marc-Olivier Méhu
Soutien technique & logistique : Manuel Goepfert

Contact : metmap@orbifly.com




SOURCES & CREDITS :

   NOAA       Earth
Advisory